sensor_id;sensor_type;location;lat;lon;timestamp;temperature;humidity
15262;DHT22;7733;51.554;13.590;2022-10-10T00:00:44;8.60;99.90
15262;DHT22;7733;51.554;13.590;2022-10-10T00:03:10;8.50;99.90
15262;DHT22;7733;51.554;13.590;2022-10-10T00:05:37;8.70;99.90
15262;DHT22;7733;51.554;13.590;2022-10-10T00:08:05;8.60;99.90
15262;DHT22;7733;51.554;13.590;2022-10-10T00:10:31;8.60;99.90
15262;DHT22;7733;51.554;13.590;2022-10-10T00:12:57;8.60;99.90
15262;DHT22;7733;51.554;13.590;2022-10-10T00:15:23;8.60;99.90
15262;DHT22;7733;51.554;13.590;2022-10-10T00:17:49;8.60;99.90
15262;DHT22;7733;51.554;13.590;2022-10-10T00:20:17;8.60;99.90
15262;DHT22;7733;51.554;13.590;2022-10-10T00:22:44;8.60;99.90
15262;DHT22;7733;51.554;13.590;2022-10-10T00:25:10;8.70;99.90
15262;DHT22;7733;51.554;13.590;2022-10-10T00:27:36;8.70;99.90
15262;DHT22;7733;51.554;13.590;2022-10-10T00:30:05;8.80;99.90
15262;DHT22;7733;51.554;13.590;2022-10-10T00:32:32;8.70;99.90
15262;DHT22;7733;51.554;13.590;2022-10-10T00:34:58;8.70;99.90
15262;DHT22;7733;51.554;13.590;2022-10-10T00:37:23;8.60;99.90
15262;DHT22;7733;51.554;13.590;2022-10-10T00:39:49;8.70;99.90
15262;DHT22;7733;51.554;13.590;2022-10-10T00:42:17;8.70;99.90
15262;DHT22;7733;51.554;13.590;2022-10-10T00:44:45;8.70;99.90
15262;DHT22;7733;51.554;13.590;2022-10-10T00:47:31;8.70;99.90
15262;DHT22;7733;51.554;13.590;2022-10-10T00:49:57;8.60;99.90
15262;DHT22;7733;51.554;13.590;2022-10-10T00:52:23;8.60;99.90
15262;DHT22;7733;51.554;13.590;2022-10-10T00:54:48;8.70;99.90
15262;DHT22;7733;51.554;13.590;2022-10-10T00:57:14;8.70;99.90
15262;DHT22;7733;51.554;13.590;2022-10-10T00:59:41;8.60;99.90
15262;DHT22;7733;51.554;13.590;2022-10-10T01:02:10;8.50;99.90
15262;DHT22;7733;51.554;13.590;2022-10-10T01:04:38;8.60;99.90
15262;DHT22;7733;51.554;13.590;2022-10-10T01:07:21;8.50;99.90
15262;DHT22;7733;51.554;13.590;2022-10-10T01:09:56;8.40;99.90
15262;DHT22;7733;51.554;13.590;2022-10-10T01:18:38;8.50;99.90
15262;DHT22;7733;51.554;13.590;2022-10-10T01:21:23;8.40;99.90
15262;DHT22;7733;51.554;13.590;2022-10-10T01:24:25;8.30;99.90
15262;DHT22;7733;51.554;13.590;2022-10-10T01:27:13;8.30;99.90
15262;DHT22;7733;51.554;13.590;2022-10-10T01:29:50;8.20;99.90
15262;DHT22;7733;51.554;13.590;2022-10-10T01:32:25;8.20;99.90
15262;DHT22;7733;51.554;13.590;2022-10-10T01:41:18;8.20;99.90
15262;DHT22;7733;51.554;13.590;2022-10-10T01:43:56;8.20;99.90
15262;DHT22;7733;51.554;13.590;2022-10-10T01:46:23;8.20;99.90
15262;DHT22;7733;51.554;13.590;2022-10-10T01:48:52;8.10;99.90
15262;DHT22;7733;51.554;13.590;2022-10-10T01:54:57;8.00;99.90
15262;DHT22;7733;51.554;13.590;2022-10-10T02:01:05;7.90;99.90
15262;DHT22;7733;51.554;13.590;2022-10-10T02:03:54;7.90;99.90
15262;DHT22;7733;51.554;13.590;2022-10-10T02:06:35;8.00;99.90
15262;DHT22;7733;51.554;13.590;2022-10-10T02:09:10;7.90;99.90
15262;DHT22;7733;51.554;13.590;2022-10-10T02:11:42;7.90;99.90
15262;DHT22;7733;51.554;13.590;2022-10-10T02:14:21;7.80;99.90
15262;DHT22;7733;51.554;13.590;2022-10-10T02:16:54;7.80;99.90
15262;DHT22;7733;51.554;13.590;2022-10-10T02:19:22;7.70;99.90
15262;DHT22;7733;51.554;13.590;2022-10-10T02:21:50;7.70;99.90
15262;DHT22;7733;51.554;13.590;2022-10-10T02:24:18;7.70;99.90
15262;DHT22;7733;51.554;13.590;2022-10-10T02:26:55;7.70;99.90
15262;DHT22;7733;51.554;13.590;2022-10-10T02:29:32;7.70;99.90
15262;DHT22;7733;51.554;13.590;2022-10-10T02:34:41;7.50;99.90
15262;DHT22;7733;51.554;13.590;2022-10-10T02:37:12;7.50;99.90
15262;DHT22;7733;51.554;13.590;2022-10-10T02:39:47;7.50;99.90
15262;DHT22;7733;51.554;13.590;2022-10-10T02:42:17;7.60;99.90
15262;DHT22;7733;51.554;13.590;2022-10-10T02:44:46;7.60;99.90
15262;DHT22;7733;51.554;13.590;2022-10-10T02:47:12;7.60;99.90
15262;DHT22;7733;51.554;13.590;2022-10-10T02:49:38;7.60;99.90
15262;DHT22;7733;51.554;13.590;2022-10-10T02:52:04;7.60;99.90
15262;DHT22;7733;51.554;13.590;2022-10-10T02:54:30;7.70;99.90
15262;DHT22;7733;51.554;13.590;2022-10-10T02:56:56;7.70;99.90
15262;DHT22;7733;51.554;13.590;2022-10-10T02:59:22;7.60;99.90
15262;DHT22;7733;51.554;13.590;2022-10-10T03:01:48;7.50;99.90
15262;DHT22;7733;51.554;13.590;2022-10-10T03:04:13;7.50;99.90
15262;DHT22;7733;51.554;13.590;2022-10-10T03:06:40;7.50;99.90
15262;DHT22;7733;51.554;13.590;2022-10-10T03:09:05;7.30;99.90
15262;DHT22;7733;51.554;13.590;2022-10-10T03:11:31;7.20;99.90
15262;DHT22;7733;51.554;13.590;2022-10-10T03:13:57;7.20;99.90
15262;DHT22;7733;51.554;13.590;2022-10-10T03:16:22;7.20;99.90
15262;DHT22;7733;51.554;13.590;2022-10-10T03:18:48;7.20;99.90
15262;DHT22;7733;51.554;13.590;2022-10-10T03:21:13;7.20;99.90
15262;DHT22;7733;51.554;13.590;2022-10-10T03:23:40;7.20;99.90
15262;DHT22;7733;51.554;13.590;2022-10-10T03:26:05;7.20;99.90
15262;DHT22;7733;51.554;13.590;2022-10-10T03:28:31;7.30;99.90
15262;DHT22;7733;51.554;13.590;2022-10-10T03:30:57;7.30;99.90
15262;DHT22;7733;51.554;13.590;2022-10-10T03:33:22;7.20;99.90
15262;DHT22;7733;51.554;13.590;2022-10-10T03:35:48;7.20;99.90
15262;DHT22;7733;51.554;13.590;2022-10-10T03:38:14;7.30;99.90
15262;DHT22;7733;51.554;13.590;2022-10-10T03:40:41;7.30;99.90
15262;DHT22;7733;51.554;13.590;2022-10-10T03:43:09;7.40;99.90
15262;DHT22;7733;51.554;13.590;2022-10-10T03:45:37;7.40;99.90
15262;DHT22;7733;51.554;13.590;2022-10-10T03:48:03;7.40;99.90
15262;DHT22;7733;51.554;13.590;2022-10-10T03:50:29;7.40;99.90
15262;DHT22;7733;51.554;13.590;2022-10-10T03:52:56;7.40;99.90
15262;DHT22;7733;51.554;13.590;2022-10-10T03:55:21;7.40;99.90
15262;DHT22;7733;51.554;13.590;2022-10-10T03:57:47;7.40;99.90
15262;DHT22;7733;51.554;13.590;2022-10-10T04:00:13;7.20;99.90
15262;DHT22;7733;51.554;13.590;2022-10-10T04:02:38;7.20;99.90
15262;DHT22;7733;51.554;13.590;2022-10-10T04:05:04;7.10;99.90
15262;DHT22;7733;51.554;13.590;2022-10-10T04:07:31;7.20;99.90
15262;DHT22;7733;51.554;13.590;2022-10-10T04:09:56;7.30;99.90
15262;DHT22;7733;51.554;13.590;2022-10-10T04:12:22;7.30;99.90
15262;DHT22;7733;51.554;13.590;2022-10-10T04:14:48;7.30;99.90
15262;DHT22;7733;51.554;13.590;2022-10-10T04:17:13;7.20;99.90
15262;DHT22;7733;51.554;13.590;2022-10-10T04:19:40;7.10;99.90
15262;DHT22;7733;51.554;13.590;2022-10-10T04:22:05;7.20;99.90
15262;DHT22;7733;51.554;13.590;2022-10-10T04:24:31;7.20;99.90
15262;DHT22;7733;51.554;13.590;2022-10-10T04:26:57;7.30;99.90
15262;DHT22;7733;51.554;13.590;2022-10-10T04:29:22;7.20;99.90
15262;DHT22;7733;51.554;13.590;2022-10-10T04:31:48;7.30;99.90
15262;DHT22;7733;51.554;13.590;2022-10-10T04:34:14;7.30;99.90
15262;DHT22;7733;51.554;13.590;2022-10-10T04:36:40;7.30;99.90
15262;DHT22;7733;51.554;13.590;2022-10-10T04:39:06;7.40;99.90
15262;DHT22;7733;51.554;13.590;2022-10-10T04:41:32;7.30;99.90
15262;DHT22;7733;51.554;13.590;2022-10-10T04:43:57;7.30;99.90
15262;DHT22;7733;51.554;13.590;2022-10-10T04:46:23;7.30;99.90
15262;DHT22;7733;51.554;13.590;2022-10-10T04:48:49;7.40;99.90
15262;DHT22;7733;51.554;13.590;2022-10-10T04:51:14;7.40;99.90
15262;DHT22;7733;51.554;13.590;2022-10-10T04:53:40;7.40;99.90
15262;DHT22;7733;51.554;13.590;2022-10-10T04:56:06;7.40;99.90
15262;DHT22;7733;51.554;13.590;2022-10-10T04:58:31;7.40;99.90
15262;DHT22;7733;51.554;13.590;2022-10-10T05:00:57;7.20;99.90
15262;DHT22;7733;51.554;13.590;2022-10-10T05:03:23;7.20;99.90
15262;DHT22;7733;51.554;13.590;2022-10-10T05:05:50;7.20;99.90
15262;DHT22;7733;51.554;13.590;2022-10-10T05:08:16;7.20;99.90
15262;DHT22;7733;51.554;13.590;2022-10-10T05:10:44;7.20;99.90
15262;DHT22;7733;51.554;13.590;2022-10-10T05:13:13;7.20;99.90
15262;DHT22;7733;51.554;13.590;2022-10-10T05:15:40;7.20;99.90
15262;DHT22;7733;51.554;13.590;2022-10-10T05:18:06;7.30;99.90
15262;DHT22;7733;51.554;13.590;2022-10-10T05:20:32;7.40;99.90
15262;DHT22;7733;51.554;13.590;2022-10-10T05:22:59;7.40;99.90
15262;DHT22;7733;51.554;13.590;2022-10-10T05:25:25;7.40;99.90
15262;DHT22;7733;51.554;13.590;2022-10-10T05:27:50;7.30;99.90
15262;DHT22;7733;51.554;13.590;2022-10-10T05:30:17;7.30;99.90
15262;DHT22;7733;51.554;13.590;2022-10-10T05:32:42;7.30;99.90
15262;DHT22;7733;51.554;13.590;2022-10-10T05:35:08;7.30;99.90
15262;DHT22;7733;51.554;13.590;2022-10-10T05:37:34;7.30;99.90
15262;DHT22;7733;51.554;13.590;2022-10-10T05:40:00;7.20;99.90
15262;DHT22;7733;51.554;13.590;2022-10-10T05:42:26;7.20;99.90
15262;DHT22;7733;51.554;13.590;2022-10-10T05:44:52;7.20;99.90
15262;DHT22;7733;51.554;13.590;2022-10-10T05:47:17;7.20;99.90
15262;DHT22;7733;51.554;13.590;2022-10-10T05:49:43;7.20;99.90
15262;DHT22;7733;51.554;13.590;2022-10-10T05:52:09;7.20;99.90
15262;DHT22;7733;51.554;13.590;2022-10-10T05:54:35;7.20;99.90
15262;DHT22;7733;51.554;13.590;2022-10-10T05:57:01;7.30;99.90
15262;DHT22;7733;51.554;13.590;2022-10-10T05:59:29;7.30;99.90
15262;DHT22;7733;51.554;13.590;2022-10-10T06:01:55;7.20;99.90
15262;DHT22;7733;51.554;13.590;2022-10-10T06:04:22;7.20;99.90
15262;DHT22;7733;51.554;13.590;2022-10-10T06:06:49;7.30;99.90
15262;DHT22;7733;51.554;13.590;2022-10-10T06:09:15;7.30;99.90
15262;DHT22;7733;51.554;13.590;2022-10-10T06:11:41;7.30;99.90
15262;DHT22;7733;51.554;13.590;2022-10-10T06:14:06;7.40;99.90
15262;DHT22;7733;51.554;13.590;2022-10-10T06:16:33;7.40;99.90
15262;DHT22;7733;51.554;13.590;2022-10-10T06:19:01;7.40;99.90
15262;DHT22;7733;51.554;13.590;2022-10-10T06:21:27;7.40;99.90
15262;DHT22;7733;51.554;13.590;2022-10-10T06:23:53;7.30;99.90
15262;DHT22;7733;51.554;13.590;2022-10-10T06:26:19;7.30;99.90
15262;DHT22;7733;51.554;13.590;2022-10-10T06:28:45;7.30;99.90
15262;DHT22;7733;51.554;13.590;2022-10-10T06:31:12;7.40;99.90
15262;DHT22;7733;51.554;13.590;2022-10-10T06:33:40;7.50;99.90
15262;DHT22;7733;51.554;13.590;2022-10-10T06:36:11;7.50;99.90
15262;DHT22;7733;51.554;13.590;2022-10-10T06:38:40;7.50;99.90
15262;DHT22;7733;51.554;13.590;2022-10-10T06:41:08;7.50;99.90
15262;DHT22;7733;51.554;13.590;2022-10-10T06:43:34;7.70;99.90
15262;DHT22;7733;51.554;13.590;2022-10-10T06:46:00;7.90;99.90
15262;DHT22;7733;51.554;13.590;2022-10-10T06:48:27;8.00;99.90
15262;DHT22;7733;51.554;13.590;2022-10-10T06:51:05;8.00;99.90
15262;DHT22;7733;51.554;13.590;2022-10-10T06:53:33;8.10;99.90
15262;DHT22;7733;51.554;13.590;2022-10-10T06:56:00;8.20;99.90
15262;DHT22;7733;51.554;13.590;2022-10-10T06:58:27;8.20;99.90
15262;DHT22;7733;51.554;13.590;2022-10-10T07:00:56;8.30;99.90
15262;DHT22;7733;51.554;13.590;2022-10-10T07:03:24;8.40;99.90
15262;DHT22;7733;51.554;13.590;2022-10-10T07:05:52;8.60;99.90
15262;DHT22;7733;51.554;13.590;2022-10-10T07:08:20;8.60;99.90
15262;DHT22;7733;51.554;13.590;2022-10-10T07:10:46;8.80;99.90
15262;DHT22;7733;51.554;13.590;2022-10-10T07:13:12;8.80;99.90
15262;DHT22;7733;51.554;13.590;2022-10-10T07:15:38;8.80;99.90
15262;DHT22;7733;51.554;13.590;2022-10-10T07:18:05;8.90;99.90
15262;DHT22;7733;51.554;13.590;2022-10-10T07:20:32;8.90;99.90
15262;DHT22;7733;51.554;13.590;2022-10-10T07:22:58;9.00;99.90
15262;DHT22;7733;51.554;13.590;2022-10-10T07:25:24;9.00;99.90
15262;DHT22;7733;51.554;13.590;2022-10-10T07:27:50;9.00;99.90
15262;DHT22;7733;51.554;13.590;2022-10-10T07:30:15;9.00;99.90
15262;DHT22;7733;51.554;13.590;2022-10-10T07:32:41;9.00;99.90
15262;DHT22;7733;51.554;13.590;2022-10-10T07:35:08;9.10;99.90
15262;DHT22;7733;51.554;13.590;2022-10-10T07:37:34;9.20;99.90
15262;DHT22;7733;51.554;13.590;2022-10-10T07:40:00;9.30;99.90
15262;DHT22;7733;51.554;13.590;2022-10-10T07:42:25;9.40;99.90
15262;DHT22;7733;51.554;13.590;2022-10-10T07:44:51;9.50;99.90
15262;DHT22;7733;51.554;13.590;2022-10-10T07:47:16;9.60;99.90
15262;DHT22;7733;51.554;13.590;2022-10-10T07:49:42;9.70;99.90
15262;DHT22;7733;51.554;13.590;2022-10-10T07:52:07;9.60;99.90
15262;DHT22;7733;51.554;13.590;2022-10-10T07:54:33;9.70;99.90
15262;DHT22;7733;51.554;13.590;2022-10-10T07:56:59;9.70;99.90
15262;DHT22;7733;51.554;13.590;2022-10-10T07:59:24;9.80;99.90
15262;DHT22;7733;51.554;13.590;2022-10-10T08:01:50;9.90;99.90
15262;DHT22;7733;51.554;13.590;2022-10-10T08:04:16;10.00;99.90
15262;DHT22;7733;51.554;13.590;2022-10-10T08:06:42;10.00;99.90
15262;DHT22;7733;51.554;13.590;2022-10-10T08:09:08;10.10;99.90
15262;DHT22;7733;51.554;13.590;2022-10-10T08:11:33;10.10;99.90
15262;DHT22;7733;51.554;13.590;2022-10-10T08:13:59;10.20;99.90
15262;DHT22;7733;51.554;13.590;2022-10-10T08:16:25;10.10;99.90
15262;DHT22;7733;51.554;13.590;2022-10-10T08:18:51;10.30;99.90
15262;DHT22;7733;51.554;13.590;2022-10-10T08:21:17;10.30;99.90
15262;DHT22;7733;51.554;13.590;2022-10-10T08:23:43;10.40;99.90
15262;DHT22;7733;51.554;13.590;2022-10-10T08:26:12;10.40;99.90
15262;DHT22;7733;51.554;13.590;2022-10-10T08:28:39;10.50;99.90
15262;DHT22;7733;51.554;13.590;2022-10-10T08:31:07;10.60;99.90
15262;DHT22;7733;51.554;13.590;2022-10-10T08:33:33;10.70;99.90
15262;DHT22;7733;51.554;13.590;2022-10-10T08:36:04;10.80;99.90
15262;DHT22;7733;51.554;13.590;2022-10-10T08:38:30;10.90;99.90
15262;DHT22;7733;51.554;13.590;2022-10-10T08:40:56;10.90;99.90
15262;DHT22;7733;51.554;13.590;2022-10-10T08:43:43;11.00;99.90
15262;DHT22;7733;51.554;13.590;2022-10-10T08:46:18;11.10;99.90
15262;DHT22;7733;51.554;13.590;2022-10-10T08:49:00;11.20;99.90
15262;DHT22;7733;51.554;13.590;2022-10-10T08:51:39;11.20;99.90
15262;DHT22;7733;51.554;13.590;2022-10-10T08:54:09;11.30;99.90
15262;DHT22;7733;51.554;13.590;2022-10-10T08:56:39;11.50;99.90
15262;DHT22;7733;51.554;13.590;2022-10-10T08:59:30;11.60;99.90
15262;DHT22;7733;51.554;13.590;2022-10-10T09:02:37;11.70;99.90
15262;DHT22;7733;51.554;13.590;2022-10-10T09:05:18;11.80;99.90
15262;DHT22;7733;51.554;13.590;2022-10-10T09:08:21;12.00;99.90
15262;DHT22;7733;51.554;13.590;2022-10-10T09:14:24;12.30;99.90
15262;DHT22;7733;51.554;13.590;2022-10-10T09:17:17;12.40;99.90
15262;DHT22;7733;51.554;13.590;2022-10-10T09:22:48;12.70;99.90
15262;DHT22;7733;51.554;13.590;2022-10-10T09:25:28;12.70;99.90
15262;DHT22;7733;51.554;13.590;2022-10-10T09:28:10;12.80;99.90
15262;DHT22;7733;51.554;13.590;2022-10-10T09:30:50;12.80;99.90
15262;DHT22;7733;51.554;13.590;2022-10-10T09:33:37;13.00;99.90
15262;DHT22;7733;51.554;13.590;2022-10-10T09:36:15;13.10;99.90
15262;DHT22;7733;51.554;13.590;2022-10-10T09:38:51;13.20;99.90
15262;DHT22;7733;51.554;13.590;2022-10-10T09:44:10;13.50;99.90
15262;DHT22;7733;51.554;13.590;2022-10-10T09:46:37;13.50;99.90
15262;DHT22;7733;51.554;13.590;2022-10-10T09:49:04;13.60;99.90
15262;DHT22;7733;51.554;13.590;2022-10-10T09:51:31;13.80;99.90
15262;DHT22;7733;51.554;13.590;2022-10-10T09:53:58;13.70;99.90
15262;DHT22;7733;51.554;13.590;2022-10-10T09:56:26;13.60;99.90
15262;DHT22;7733;51.554;13.590;2022-10-10T09:58:55;13.60;99.90
15262;DHT22;7733;51.554;13.590;2022-10-10T10:01:27;13.70;99.90
15262;DHT22;7733;51.554;13.590;2022-10-10T10:06:48;13.70;99.90
15262;DHT22;7733;51.554;13.590;2022-10-10T10:09:17;13.70;99.90
15262;DHT22;7733;51.554;13.590;2022-10-10T10:11:47;13.70;99.90
15262;DHT22;7733;51.554;13.590;2022-10-10T10:14:25;13.70;99.90
15262;DHT22;7733;51.554;13.590;2022-10-10T10:17:03;13.80;99.90
15262;DHT22;7733;51.554;13.590;2022-10-10T10:19:35;13.80;99.90
15262;DHT22;7733;51.554;13.590;2022-10-10T10:22:03;13.90;99.90
15262;DHT22;7733;51.554;13.590;2022-10-10T10:24:31;14.00;99.90
15262;DHT22;7733;51.554;13.590;2022-10-10T10:27:21;14.00;99.90
15262;DHT22;7733;51.554;13.590;2022-10-10T10:29:56;14.10;99.90
15262;DHT22;7733;51.554;13.590;2022-10-10T10:38:18;14.20;99.90
15262;DHT22;7733;51.554;13.590;2022-10-10T10:41:13;14.10;99.90
15262;DHT22;7733;51.554;13.590;2022-10-10T10:44:11;14.20;99.90
15262;DHT22;7733;51.554;13.590;2022-10-10T10:50:27;14.20;99.90
15262;DHT22;7733;51.554;13.590;2022-10-10T10:56:01;14.50;99.90
15262;DHT22;7733;51.554;13.590;2022-10-10T11:01:46;14.70;99.90
15262;DHT22;7733;51.554;13.590;2022-10-10T11:07:41;14.80;99.90
15262;DHT22;7733;51.554;13.590;2022-10-10T11:13:42;15.00;99.90
15262;DHT22;7733;51.554;13.590;2022-10-10T11:16:31;15.10;99.90
15262;DHT22;7733;51.554;13.590;2022-10-10T11:19:36;15.20;99.90
15262;DHT22;7733;51.554;13.590;2022-10-10T11:22:07;15.70;99.90
15262;DHT22;7733;51.554;13.590;2022-10-10T11:27:27;16.30;99.90
15262;DHT22;7733;51.554;13.590;2022-10-10T11:38:49;16.60;99.90
15262;DHT22;7733;51.554;13.590;2022-10-10T11:41:21;17.00;99.90
15262;DHT22;7733;51.554;13.590;2022-10-10T11:44:09;17.10;99.90
15262;DHT22;7733;51.554;13.590;2022-10-10T11:46:53;17.00;99.90
15262;DHT22;7733;51.554;13.590;2022-10-10T11:49:54;17.00;99.90
15262;DHT22;7733;51.554;13.590;2022-10-10T11:52:45;17.20;99.90
15262;DHT22;7733;51.554;13.590;2022-10-10T11:55:22;17.70;99.90
15262;DHT22;7733;51.554;13.590;2022-10-10T12:00:36;17.40;99.90
15262;DHT22;7733;51.554;13.590;2022-10-10T12:03:08;17.60;99.90
15262;DHT22;7733;51.554;13.590;2022-10-10T12:05:34;17.70;99.90
15262;DHT22;7733;51.554;13.590;2022-10-10T12:08:19;17.70;99.90
15262;DHT22;7733;51.554;13.590;2022-10-10T12:11:14;17.90;99.90
15262;DHT22;7733;51.554;13.590;2022-10-10T12:13:48;18.00;99.90
15262;DHT22;7733;51.554;13.590;2022-10-10T12:16:22;17.80;99.90
15262;DHT22;7733;51.554;13.590;2022-10-10T12:19:04;17.70;99.90
15262;DHT22;7733;51.554;13.590;2022-10-10T12:21:50;17.70;99.90
15262;DHT22;7733;51.554;13.590;2022-10-10T12:24:19;17.60;99.90
15262;DHT22;7733;51.554;13.590;2022-10-10T12:29:40;17.60;99.90
15262;DHT22;7733;51.554;13.590;2022-10-10T12:37:23;17.90;99.90
15262;DHT22;7733;51.554;13.590;2022-10-10T12:42:59;17.80;99.90
15262;DHT22;7733;51.554;13.590;2022-10-10T12:45:56;17.80;99.90
15262;DHT22;7733;51.554;13.590;2022-10-10T12:48:32;17.70;99.90
15262;DHT22;7733;51.554;13.590;2022-10-10T12:51:00;17.50;99.90
15262;DHT22;7733;51.554;13.590;2022-10-10T12:53:29;17.50;99.90
15262;DHT22;7733;51.554;13.590;2022-10-10T12:56:00;17.40;99.90
15262;DHT22;7733;51.554;13.590;2022-10-10T12:58:31;17.40;99.90
15262;DHT22;7733;51.554;13.590;2022-10-10T13:01:01;17.60;99.90
15262;DHT22;7733;51.554;13.590;2022-10-10T13:03:37;17.50;99.90
15262;DHT22;7733;51.554;13.590;2022-10-10T13:08:55;17.90;99.90
15262;DHT22;7733;51.554;13.590;2022-10-10T13:11:22;18.10;99.90
15262;DHT22;7733;51.554;13.590;2022-10-10T13:13:50;18.20;99.90
15262;DHT22;7733;51.554;13.590;2022-10-10T13:16:20;18.20;99.90
15262;DHT22;7733;51.554;13.590;2022-10-10T13:18:55;18.20;99.90
15262;DHT22;7733;51.554;13.590;2022-10-10T13:21:27;18.20;99.90
15262;DHT22;7733;51.554;13.590;2022-10-10T13:24:01;18.40;99.90
15262;DHT22;7733;51.554;13.590;2022-10-10T13:26:35;18.40;99.90
15262;DHT22;7733;51.554;13.590;2022-10-10T13:32:05;18.60;99.90
15262;DHT22;7733;51.554;13.590;2022-10-10T13:34:35;18.60;99.90
15262;DHT22;7733;51.554;13.590;2022-10-10T13:37:04;18.60;99.90
15262;DHT22;7733;51.554;13.590;2022-10-10T13:39:33;18.50;99.90
15262;DHT22;7733;51.554;13.590;2022-10-10T13:42:02;18.40;99.90
15262;DHT22;7733;51.554;13.590;2022-10-10T13:44:44;18.50;99.90
15262;DHT22;7733;51.554;13.590;2022-10-10T13:47:43;18.40;99.90
15262;DHT22;7733;51.554;13.590;2022-10-10T13:50:30;18.20;99.90
15262;DHT22;7733;51.554;13.590;2022-10-10T13:56:05;18.00;99.90
15262;DHT22;7733;51.554;13.590;2022-10-10T13:58:52;18.10;99.90
15262;DHT22;7733;51.554;13.590;2022-10-10T14:04:03;18.10;99.90
15262;DHT22;7733;51.554;13.590;2022-10-10T14:06:40;18.00;99.90
15262;DHT22;7733;51.554;13.590;2022-10-10T14:09:20;18.00;99.90
15262;DHT22;7733;51.554;13.590;2022-10-10T14:11:52;17.90;99.90
15262;DHT22;7733;51.554;13.590;2022-10-10T14:14:25;17.90;99.90
15262;DHT22;7733;51.554;13.590;2022-10-10T14:17:02;17.90;99.90
15262;DHT22;7733;51.554;13.590;2022-10-10T14:19:29;17.90;99.90
15262;DHT22;7733;51.554;13.590;2022-10-10T14:21:56;17.80;99.90
15262;DHT22;7733;51.554;13.590;2022-10-10T14:24:22;17.90;99.90
15262;DHT22;7733;51.554;13.590;2022-10-10T14:26:48;17.80;99.90
15262;DHT22;7733;51.554;13.590;2022-10-10T14:29:15;17.80;99.90
15262;DHT22;7733;51.554;13.590;2022-10-10T14:31:42;17.70;99.90
15262;DHT22;7733;51.554;13.590;2022-10-10T14:34:09;17.70;99.90
15262;DHT22;7733;51.554;13.590;2022-10-10T14:36:38;17.70;99.90
15262;DHT22;7733;51.554;13.590;2022-10-10T14:39:06;17.70;99.90
15262;DHT22;7733;51.554;13.590;2022-10-10T14:41:32;17.70;99.90
15262;DHT22;7733;51.554;13.590;2022-10-10T14:43:57;17.60;99.90
15262;DHT22;7733;51.554;13.590;2022-10-10T14:46:23;17.60;99.90
15262;DHT22;7733;51.554;13.590;2022-10-10T14:48:49;17.60;99.90
15262;DHT22;7733;51.554;13.590;2022-10-10T14:51:14;17.60;99.90
15262;DHT22;7733;51.554;13.590;2022-10-10T14:53:40;17.40;99.90
15262;DHT22;7733;51.554;13.590;2022-10-10T14:56:06;17.40;99.90
15262;DHT22;7733;51.554;13.590;2022-10-10T14:58:33;17.40;99.90
15262;DHT22;7733;51.554;13.590;2022-10-10T15:00:59;17.30;99.90
15262;DHT22;7733;51.554;13.590;2022-10-10T15:03:24;17.30;99.90
15262;DHT22;7733;51.554;13.590;2022-10-10T15:05:50;17.10;99.90
15262;DHT22;7733;51.554;13.590;2022-10-10T15:08:17;17.10;99.90
15262;DHT22;7733;51.554;13.590;2022-10-10T15:10:43;17.10;99.90
15262;DHT22;7733;51.554;13.590;2022-10-10T15:13:11;17.10;99.90
15262;DHT22;7733;51.554;13.590;2022-10-10T15:15:37;17.00;99.90
15262;DHT22;7733;51.554;13.590;2022-10-10T15:18:03;17.00;99.90
15262;DHT22;7733;51.554;13.590;2022-10-10T15:20:29;17.00;99.90
15262;DHT22;7733;51.554;13.590;2022-10-10T15:23:00;17.00;99.90
15262;DHT22;7733;51.554;13.590;2022-10-10T15:25:31;17.00;99.90
15262;DHT22;7733;51.554;13.590;2022-10-10T15:27:57;17.20;99.90
15262;DHT22;7733;51.554;13.590;2022-10-10T15:30:23;17.10;99.90
15262;DHT22;7733;51.554;13.590;2022-10-10T15:32:50;17.20;99.90
15262;DHT22;7733;51.554;13.590;2022-10-10T15:35:21;17.10;99.90
15262;DHT22;7733;51.554;13.590;2022-10-10T15:37:48;17.10;99.90
15262;DHT22;7733;51.554;13.590;2022-10-10T15:40:17;17.00;99.90
15262;DHT22;7733;51.554;13.590;2022-10-10T15:42:46;16.90;99.90
15262;DHT22;7733;51.554;13.590;2022-10-10T15:45:13;16.90;99.90
15262;DHT22;7733;51.554;13.590;2022-10-10T15:47:40;16.80;99.90
15262;DHT22;7733;51.554;13.590;2022-10-10T15:50:07;16.80;99.90
15262;DHT22;7733;51.554;13.590;2022-10-10T15:52:35;16.80;99.90
15262;DHT22;7733;51.554;13.590;2022-10-10T15:55:01;16.70;99.90
15262;DHT22;7733;51.554;13.590;2022-10-10T15:57:29;16.70;99.90
15262;DHT22;7733;51.554;13.590;2022-10-10T15:59:55;16.60;99.90
15262;DHT22;7733;51.554;13.590;2022-10-10T16:02:20;16.60;99.90
15262;DHT22;7733;51.554;13.590;2022-10-10T16:04:46;16.50;99.90
15262;DHT22;7733;51.554;13.590;2022-10-10T16:07:12;16.50;99.90
15262;DHT22;7733;51.554;13.590;2022-10-10T16:09:38;16.30;99.90
15262;DHT22;7733;51.554;13.590;2022-10-10T16:12:04;16.20;99.90
15262;DHT22;7733;51.554;13.590;2022-10-10T16:14:31;16.10;99.90
15262;DHT22;7733;51.554;13.590;2022-10-10T16:16:57;16.00;99.90
15262;DHT22;7733;51.554;13.590;2022-10-10T16:19:23;15.90;99.90
15262;DHT22;7733;51.554;13.590;2022-10-10T16:21:48;15.80;99.90
15262;DHT22;7733;51.554;13.590;2022-10-10T16:24:14;15.80;99.90
15262;DHT22;7733;51.554;13.590;2022-10-10T16:26:40;15.70;99.90
15262;DHT22;7733;51.554;13.590;2022-10-10T16:29:07;15.60;99.90
15262;DHT22;7733;51.554;13.590;2022-10-10T16:31:34;15.40;99.90
15262;DHT22;7733;51.554;13.590;2022-10-10T16:34:01;15.40;99.90
15262;DHT22;7733;51.554;13.590;2022-10-10T16:36:29;15.30;99.90
15262;DHT22;7733;51.554;13.590;2022-10-10T16:38:57;15.20;99.90
15262;DHT22;7733;51.554;13.590;2022-10-10T16:41:26;15.10;99.90
15262;DHT22;7733;51.554;13.590;2022-10-10T16:43:53;15.00;99.90
15262;DHT22;7733;51.554;13.590;2022-10-10T16:46:21;14.90;99.90
15262;DHT22;7733;51.554;13.590;2022-10-10T16:48:50;14.90;99.90
15262;DHT22;7733;51.554;13.590;2022-10-10T16:51:19;14.80;99.90
15262;DHT22;7733;51.554;13.590;2022-10-10T16:53:48;14.70;99.90
15262;DHT22;7733;51.554;13.590;2022-10-10T16:56:15;14.70;99.90
15262;DHT22;7733;51.554;13.590;2022-10-10T16:58:43;14.70;99.90
15262;DHT22;7733;51.554;13.590;2022-10-10T17:01:11;14.60;99.90
15262;DHT22;7733;51.554;13.590;2022-10-10T17:03:41;14.50;99.90
15262;DHT22;7733;51.554;13.590;2022-10-10T17:06:15;14.40;99.90
15262;DHT22;7733;51.554;13.590;2022-10-10T17:08:44;14.40;99.90
15262;DHT22;7733;51.554;13.590;2022-10-10T17:11:11;14.20;99.90
15262;DHT22;7733;51.554;13.590;2022-10-10T17:13:39;14.20;99.90
15262;DHT22;7733;51.554;13.590;2022-10-10T17:16:08;14.10;99.90
15262;DHT22;7733;51.554;13.590;2022-10-10T17:18:36;14.00;99.90
15262;DHT22;7733;51.554;13.590;2022-10-10T17:21:03;14.00;99.90
15262;DHT22;7733;51.554;13.590;2022-10-10T17:23:32;13.90;99.90
15262;DHT22;7733;51.554;13.590;2022-10-10T17:25:58;13.80;99.90
15262;DHT22;7733;51.554;13.590;2022-10-10T17:28:24;13.80;99.90